createdAt,value
2019-04-27T00:01:05.145Z,8.60
2019-04-27T00:03:46.790Z,8.80
2019-04-27T00:06:20.991Z,8.80
2019-04-27T00:08:53.516Z,8.80
2019-04-27T00:11:24.904Z,8.80
2019-04-27T00:13:54.642Z,8.80
2019-04-27T00:16:28.859Z,8.70
2019-04-27T00:19:16.577Z,8.70
2019-04-27T00:21:47.822Z,8.80
2019-04-27T00:24:19.502Z,8.90
2019-04-27T00:26:49.205Z,8.90
2019-04-27T00:29:19.936Z,8.90
2019-04-27T00:31:49.545Z,8.80
2019-04-27T00:34:20.257Z,8.80
2019-04-27T00:37:10.543Z,8.80
2019-04-27T00:39:47.451Z,8.60
2019-04-27T00:42:17.061Z,8.70
2019-04-27T00:44:46.768Z,8.70
2019-04-27T00:47:16.450Z,8.80
2019-04-27T00:49:46.189Z,8.80
2019-04-27T00:52:15.796Z,8.80
2019-04-27T00:54:45.478Z,8.80
2019-04-27T00:57:34.216Z,8.80
2019-04-27T01:00:18.524Z,8.80
2019-04-27T01:02:53.604Z,8.70
2019-04-27T01:05:25.075Z,8.60
2019-04-27T01:07:55.670Z,8.70
2019-04-27T01:10:25.451Z,8.70
2019-04-27T01:12:55.156Z,8.60
2019-04-27T01:15:25.859Z,8.60
2019-04-27T01:18:09.571Z,8.50
2019-04-27T01:20:28.415Z,8.40
2019-04-27T01:22:59.460Z,8.50
2019-04-27T01:25:30.875Z,8.50
2019-04-27T01:28:14.409Z,8.50
2019-04-27T01:30:45.627Z,8.40
2019-04-27T01:33:15.255Z,8.40
2019-04-27T01:35:44.974Z,8.40
2019-04-27T01:38:14.687Z,8.30
2019-04-27T01:40:44.262Z,8.20
2019-04-27T01:43:14.004Z,8.20
2019-04-27T01:45:43.683Z,8.10
2019-04-27T01:48:22.935Z,8.20
2019-04-27T01:50:44.566Z,8.30
2019-04-27T01:53:14.246Z,8.20
2019-04-27T01:55:43.987Z,8.00
2019-04-27T01:58:13.596Z,7.90
2019-04-27T02:01:01.299Z,7.70
2019-04-27T02:03:48.973Z,7.60
2019-04-27T02:06:19.081Z,7.70
2019-04-27T02:08:49.987Z,7.70
2019-04-27T02:11:19.728Z,7.60
2019-04-27T02:13:51.000Z,7.70
2019-04-27T02:16:21.780Z,7.60
2019-04-27T02:18:52.410Z,7.50
2019-04-27T02:21:22.152Z,7.60
2019-04-27T02:23:51.759Z,7.60
2019-04-27T02:26:22.976Z,7.50
2019-04-27T02:29:10.840Z,7.40
2019-04-27T02:31:42.267Z,7.40
2019-04-27T02:34:22.521Z,7.40
2019-04-27T02:36:52.260Z,7.40
2019-04-27T02:39:21.969Z,7.30
2019-04-27T02:41:51.938Z,7.40
2019-04-27T02:44:30.137Z,7.40
2019-04-27T02:47:00.472Z,7.30
2019-04-27T02:49:31.378Z,7.30
2019-04-27T02:52:05.275Z,7.30
2019-04-27T02:54:34.975Z,7.30
2019-04-27T02:57:04.582Z,7.30
2019-04-27T02:59:34.263Z,7.40
2019-04-27T03:02:11.755Z,7.50
2019-04-27T03:04:41.500Z,7.50
2019-04-27T03:07:11.594Z,7.60
2019-04-27T03:09:41.446Z,7.60
2019-04-27T03:12:14.536Z,7.60
2019-04-27T03:14:50.371Z,7.60
2019-04-27T03:17:22.738Z,7.60
2019-04-27T03:19:53.651Z,7.50
2019-04-27T03:22:40.088Z,7.50
2019-04-27T03:25:14.891Z,7.50
2019-04-27T03:27:47.187Z,7.50
2019-04-27T03:30:22.487Z,7.70
2019-04-27T03:32:54.916Z,7.70
2019-04-27T03:35:22.769Z,7.70
2019-04-27T03:37:52.683Z,7.70
2019-04-27T03:40:24.209Z,7.70
2019-04-27T03:42:55.451Z,7.60
2019-04-27T03:45:25.087Z,7.50
2019-04-27T03:47:55.688Z,7.50
2019-04-27T03:50:33.010Z,7.50
2019-04-27T03:53:20.579Z,7.50
2019-04-27T03:55:51.883Z,7.60
2019-04-27T03:58:23.117Z,7.70
2019-04-27T04:00:54.068Z,7.80
2019-04-27T04:03:23.675Z,7.80
2019-04-27T04:05:53.384Z,7.80
2019-04-27T04:08:22.964Z,7.80
2019-04-27T04:10:59.633Z,7.70
2019-04-27T04:13:34.987Z,7.70
2019-04-27T04:16:11.085Z,7.80
2019-04-27T04:18:56.808Z,7.80
2019-04-27T04:21:26.564Z,7.80
2019-04-27T04:23:56.178Z,7.80
2019-04-27T04:26:25.883Z,7.80
2019-04-27T04:28:55.459Z,7.90
2019-04-27T04:31:25.200Z,7.80
2019-04-27T04:33:54.808Z,7.80
2019-04-27T04:36:24.517Z,7.80
2019-04-27T04:38:54.227Z,7.70
2019-04-27T04:41:43.654Z,7.70
2019-04-27T04:44:25.495Z,7.80
2019-04-27T04:47:02.474Z,7.80
2019-04-27T04:49:32.086Z,7.70
2019-04-27T04:52:01.765Z,7.80
2019-04-27T04:54:31.404Z,7.90
2019-04-27T04:57:01.111Z,7.90
2019-04-27T04:59:30.689Z,7.90
2019-04-27T05:02:02.368Z,7.90
2019-04-27T05:04:31.674Z,7.80
2019-04-27T05:07:02.358Z,7.80
2019-04-27T05:09:32.017Z,7.80
2019-04-27T05:12:01.701Z,7.80
2019-04-27T05:14:33.123Z,7.80
2019-04-27T05:17:03.808Z,7.80
2019-04-27T05:19:33.695Z,7.80
2019-04-27T05:22:03.331Z,7.90
2019-04-27T05:24:33.012Z,7.80
2019-04-27T05:27:03.597Z,7.80
2019-04-27T05:29:33.383Z,7.90
2019-04-27T05:32:02.991Z,7.90
2019-04-27T05:34:32.650Z,7.90
2019-04-27T05:37:02.259Z,7.90
2019-04-27T05:39:31.942Z,7.90
2019-04-27T05:42:02.579Z,7.90
2019-04-27T05:44:59.056Z,7.90
2019-04-27T05:47:30.487Z,8.00
2019-04-27T05:50:01.703Z,8.00
2019-04-27T05:52:31.342Z,8.10
2019-04-27T05:55:02.045Z,8.10
2019-04-27T05:57:33.388Z,8.10
2019-04-27T06:00:04.383Z,8.10
2019-04-27T06:02:34.042Z,8.10
2019-04-27T06:05:04.601Z,8.10
2019-04-27T06:07:34.283Z,8.10
2019-04-27T06:10:04.226Z,8.20
2019-04-27T06:12:33.937Z,8.20
2019-04-27T06:15:03.723Z,8.20
2019-04-27T06:17:35.174Z,8.10
2019-04-27T06:20:06.244Z,8.20
2019-04-27T06:22:39.047Z,8.10
2019-04-27T06:25:07.212Z,8.10
2019-04-27T06:27:36.908Z,8.00
2019-04-27T06:30:09.217Z,8.00
2019-04-27T06:32:39.552Z,8.00
2019-04-27T06:35:12.252Z,8.00
2019-04-27T06:37:40.766Z,7.90
2019-04-27T06:40:10.855Z,7.90
2019-04-27T06:42:40.464Z,7.90
2019-04-27T06:45:10.203Z,7.90
2019-04-27T06:47:41.430Z,7.90
2019-04-27T06:50:13.185Z,8.00
2019-04-27T06:52:42.507Z,7.90
2019-04-27T06:55:12.217Z,7.90
2019-04-27T06:57:41.795Z,7.90
2019-04-27T07:00:12.817Z,7.90
2019-04-27T07:02:42.446Z,8.00
2019-04-27T07:05:12.156Z,8.00
2019-04-27T07:07:41.791Z,8.10
2019-04-27T07:10:11.505Z,8.10
2019-04-27T07:12:41.271Z,8.10
2019-04-27T07:15:12.151Z,8.10
2019-04-27T07:17:41.833Z,8.10
2019-04-27T07:20:13.229Z,8.10
2019-04-27T07:22:42.919Z,8.20
2019-04-27T07:25:12.629Z,8.30
2019-04-27T07:27:42.342Z,8.50
2019-04-27T07:30:12.884Z,8.60
2019-04-27T07:32:42.580Z,8.80
2019-04-27T07:35:12.259Z,9.00
2019-04-27T07:37:41.896Z,9.20
2019-04-27T07:40:12.631Z,9.30
2019-04-27T07:42:46.009Z,9.40
2019-04-27T07:45:16.731Z,9.40
2019-04-27T07:47:49.255Z,9.40
2019-04-27T07:50:19.424Z,9.50
2019-04-27T07:52:49.139Z,9.60
2019-04-27T07:55:18.881Z,9.50
2019-04-27T07:57:49.446Z,9.60
2019-04-27T08:00:19.629Z,9.70
2019-04-27T08:02:49.237Z,9.70
2019-04-27T08:05:19.264Z,9.70
2019-04-27T08:07:49.254Z,9.70
2019-04-27T08:10:20.078Z,9.80
2019-04-27T08:12:49.940Z,9.80
2019-04-27T08:15:19.741Z,9.90
2019-04-27T08:17:49.440Z,10.00
2019-04-27T08:20:21.106Z,10.30
2019-04-27T08:22:50.474Z,10.40
2019-04-27T08:25:20.183Z,10.50
2019-04-27T08:27:51.458Z,10.60
2019-04-27T08:30:22.707Z,11.00
2019-04-27T08:32:54.053Z,11.20
2019-04-27T08:35:23.734Z,11.20
2019-04-27T08:37:53.472Z,11.20
2019-04-27T08:40:24.900Z,11.30
2019-04-27T08:42:55.831Z,11.30
2019-04-27T08:45:25.648Z,11.50
2019-04-27T08:47:55.355Z,11.70
2019-04-27T08:50:28.488Z,11.80
2019-04-27T08:52:56.343Z,11.90
2019-04-27T08:55:26.051Z,12.00
2019-04-27T08:57:55.761Z,12.30
2019-04-27T09:00:25.471Z,12.40
2019-04-27T09:02:55.180Z,12.30
2019-04-27T09:05:28.974Z,12.50
2019-04-27T09:08:00.438Z,12.50
2019-04-27T09:10:38.811Z,12.50
2019-04-27T09:13:19.553Z,12.70
2019-04-27T09:15:53.740Z,12.50
2019-04-27T09:18:25.979Z,12.70
2019-04-27T09:21:02.268Z,12.70
2019-04-27T09:23:31.879Z,12.60
2019-04-27T09:26:03.339Z,12.60
2019-04-27T09:28:33.038Z,12.30
2019-04-27T09:31:02.724Z,12.00
2019-04-27T09:33:32.327Z,12.10
2019-04-27T09:36:02.999Z,12.40
2019-04-27T09:38:32.698Z,13.00
2019-04-27T09:41:02.305Z,13.60
2019-04-27T09:43:31.987Z,13.80
2019-04-27T09:46:01.725Z,13.70
2019-04-27T09:48:31.435Z,13.40
2019-04-27T09:51:01.145Z,13.10
2019-04-27T09:53:30.827Z,13.00
2019-04-27T09:56:00.540Z,12.80
2019-04-27T09:58:30.247Z,12.70
2019-04-27T10:00:59.985Z,12.70
2019-04-27T10:03:29.696Z,12.60
2019-04-27T10:06:01.115Z,12.70
2019-04-27T10:08:30.727Z,12.40
2019-04-27T10:11:00.362Z,12.20
2019-04-27T10:13:30.072Z,11.90
2019-04-27T10:15:59.755Z,11.70
2019-04-27T10:18:29.389Z,11.70
2019-04-27T10:21:02.062Z,11.70
2019-04-27T10:23:32.086Z,11.80
2019-04-27T10:26:02.853Z,12.10
2019-04-27T10:28:32.505Z,12.60
2019-04-27T10:31:02.241Z,13.10
2019-04-27T10:33:32.873Z,13.10
2019-04-27T10:36:02.554Z,13.00
2019-04-27T10:38:32.339Z,13.40
2019-04-27T10:41:02.105Z,13.70
2019-04-27T10:43:31.816Z,14.20
2019-04-27T10:46:01.526Z,14.50
2019-04-27T10:48:31.239Z,14.90
2019-04-27T10:51:02.684Z,15.00
2019-04-27T10:53:33.351Z,15.20
2019-04-27T10:56:02.999Z,15.50
2019-04-27T10:58:32.739Z,15.50
2019-04-27T11:01:05.476Z,15.50
2019-04-27T11:03:57.588Z,15.40
2019-04-27T11:06:31.260Z,15.30
2019-04-27T11:09:00.968Z,15.10
2019-04-27T11:11:32.214Z,15.00
2019-04-27T11:14:01.927Z,15.20
2019-04-27T11:16:32.761Z,16.40
2019-04-27T11:19:02.339Z,16.90
2019-04-27T11:21:33.174Z,17.40
2019-04-27T11:24:02.813Z,18.60
2019-04-27T11:26:32.524Z,19.60
2019-04-27T11:29:02.234Z,19.10
2019-04-27T11:31:31.915Z,17.90
2019-04-27T11:34:01.576Z,17.50
2019-04-27T11:36:32.822Z,17.20
2019-04-27T11:39:03.965Z,16.50
2019-04-27T11:41:35.190Z,16.20
2019-04-27T11:44:04.922Z,16.00
2019-04-27T11:46:34.603Z,16.80
2019-04-27T11:49:04.341Z,17.60
2019-04-27T11:51:34.052Z,17.80
2019-04-27T11:54:03.764Z,17.60
2019-04-27T11:56:36.176Z,17.90
2019-04-27T11:59:04.820Z,17.90
2019-04-27T12:01:35.816Z,18.40
2019-04-27T12:04:05.899Z,19.10
2019-04-27T12:06:35.943Z,19.60
2019-04-27T12:09:06.737Z,19.00
2019-04-27T12:11:36.950Z,19.00
2019-04-27T12:14:06.567Z,19.60
2019-04-27T12:16:36.285Z,20.00
2019-04-27T12:19:06.585Z,19.50
2019-04-27T12:21:36.523Z,19.30
2019-04-27T12:24:07.935Z,19.40
2019-04-27T12:26:39.209Z,19.00
2019-04-27T12:29:10.453Z,17.80
2019-04-27T12:31:44.941Z,17.20
2019-04-27T12:34:12.920Z,16.70
2019-04-27T12:36:42.656Z,16.40
2019-04-27T12:39:12.643Z,16.10
2019-04-27T12:41:42.499Z,16.00
2019-04-27T12:44:12.197Z,16.00
2019-04-27T12:46:41.805Z,16.00
2019-04-27T12:49:26.182Z,16.20
2019-04-27T12:51:55.971Z,16.10
2019-04-27T12:54:36.320Z,16.20
2019-04-27T12:57:26.214Z,16.50
2019-04-27T12:59:59.793Z,16.60
2019-04-27T13:02:31.063Z,16.80
2019-04-27T13:05:00.746Z,16.60
2019-04-27T13:07:30.351Z,16.90
2019-04-27T13:10:00.090Z,17.30
2019-04-27T13:12:29.799Z,18.00
2019-04-27T13:14:59.509Z,17.90
2019-04-27T13:17:29.122Z,16.90
2019-04-27T13:19:58.826Z,17.10
2019-04-27T13:22:28.537Z,17.40
2019-04-27T13:24:58.251Z,17.70
2019-04-27T13:27:27.963Z,18.40
2019-04-27T13:29:57.668Z,18.90
2019-04-27T13:32:27.385Z,19.00
2019-04-27T13:34:57.059Z,18.70
2019-04-27T13:37:33.967Z,18.20
2019-04-27T13:40:07.159Z,17.70
2019-04-27T13:42:38.317Z,17.50
2019-04-27T13:45:09.342Z,17.10
2019-04-27T13:47:46.631Z,16.70
2019-04-27T13:50:17.884Z,16.60
2019-04-27T13:52:47.586Z,16.80
2019-04-27T13:55:17.194Z,17.90
2019-04-27T13:57:50.342Z,18.50
2019-04-27T14:00:18.151Z,17.70
2019-04-27T14:02:49.559Z,17.80
2019-04-27T14:05:19.208Z,18.70
2019-04-27T14:07:49.941Z,19.40
2019-04-27T14:10:20.336Z,19.90
2019-04-27T14:12:50.287Z,20.70
2019-04-27T14:15:19.995Z,20.90
2019-04-27T14:17:50.074Z,20.80
2019-04-27T14:20:19.813Z,21.00
2019-04-27T14:22:49.840Z,20.80
2019-04-27T14:25:19.552Z,20.30
2019-04-27T14:27:49.164Z,21.50
2019-04-27T14:30:19.074Z,22.60
2019-04-27T14:32:48.655Z,22.90
2019-04-27T14:35:18.494Z,22.30
2019-04-27T14:37:50.157Z,20.40
2019-04-27T14:40:20.547Z,20.70
2019-04-27T14:42:52.141Z,20.40
2019-04-27T14:45:21.637Z,19.70
2019-04-27T14:47:53.050Z,19.60
2019-04-27T14:50:22.696Z,18.70
2019-04-27T14:52:52.404Z,18.60
2019-04-27T14:55:22.088Z,18.20
2019-04-27T14:57:51.824Z,17.70
2019-04-27T15:00:22.150Z,16.80
2019-04-27T15:02:51.859Z,16.40
2019-04-27T15:05:22.440Z,16.30
2019-04-27T15:07:52.485Z,15.90
2019-04-27T15:10:22.221Z,15.90
2019-04-27T15:12:51.929Z,15.80
2019-04-27T15:15:23.275Z,16.00
2019-04-27T15:17:52.855Z,16.10
2019-04-27T15:20:41.571Z,15.90
2019-04-27T15:23:10.531Z,15.70
2019-04-27T15:25:45.189Z,15.50
2019-04-27T15:28:16.198Z,15.40
2019-04-27T15:30:54.306Z,15.20
2019-04-27T15:33:41.942Z,14.70
2019-04-27T15:36:25.164Z,14.50
2019-04-27T15:38:58.505Z,14.30
2019-04-27T15:41:31.533Z,14.50
2019-04-27T15:44:05.698Z,14.90
2019-04-27T15:46:34.952Z,15.50
2019-04-27T15:49:08.072Z,16.00
2019-04-27T15:51:38.101Z,15.60
2019-04-27T15:54:07.777Z,15.60
2019-04-27T15:56:37.486Z,15.40
2019-04-27T15:59:08.666Z,15.50
2019-04-27T16:01:39.560Z,16.00
2019-04-27T16:04:11.171Z,16.20
2019-04-27T16:06:42.894Z,16.00
2019-04-27T16:09:21.719Z,15.70
2019-04-27T16:11:50.054Z,15.50
2019-04-27T16:14:18.975Z,15.50
2019-04-27T16:16:48.834Z,15.30
2019-04-27T16:19:18.584Z,14.80
2019-04-27T16:21:54.120Z,14.70
2019-04-27T16:24:21.179Z,15.10
2019-04-27T16:26:52.169Z,15.30
2019-04-27T16:29:23.181Z,15.20
2019-04-27T16:31:54.484Z,15.20
2019-04-27T16:34:24.233Z,15.00
2019-04-27T16:36:53.942Z,14.70
2019-04-27T16:39:23.652Z,14.70
2019-04-27T16:41:54.313Z,14.70
2019-04-27T16:44:24.096Z,14.70
2019-04-27T16:46:53.703Z,14.80
2019-04-27T16:49:24.511Z,14.80
2019-04-27T16:51:54.251Z,14.90
2019-04-27T16:54:24.035Z,14.80
2019-04-27T16:57:02.438Z,14.50
2019-04-27T16:59:40.990Z,14.30
2019-04-27T17:01:57.399Z,14.00
2019-04-27T17:04:27.104Z,13.90
2019-04-27T17:06:58.659Z,13.90
2019-04-27T17:09:29.196Z,13.80
2019-04-27T17:11:59.362Z,13.70
2019-04-27T17:14:35.101Z,13.60
2019-04-27T17:17:10.688Z,13.60
2019-04-27T17:19:43.724Z,13.60
2019-04-27T17:22:14.775Z,13.50
2019-04-27T17:24:46.848Z,13.50
2019-04-27T17:27:21.204Z,13.50
2019-04-27T17:29:49.990Z,13.50
2019-04-27T17:32:20.535Z,13.50
2019-04-27T17:34:50.237Z,13.70
2019-04-27T17:37:25.187Z,13.80
2019-04-27T17:39:53.581Z,13.80
2019-04-27T17:42:26.914Z,13.60
2019-04-27T17:44:59.098Z,13.50
2019-04-27T17:47:26.607Z,13.40
2019-04-27T17:49:58.275Z,13.40
2019-04-27T17:52:27.731Z,13.40
2019-04-27T17:54:59.130Z,12.70
2019-04-27T17:57:30.126Z,12.10
2019-04-27T18:00:03.238Z,11.70
2019-04-27T18:02:33.704Z,11.50
2019-04-27T18:05:05.163Z,11.40
2019-04-27T18:07:39.612Z,11.20
2019-04-27T18:10:08.650Z,11.10
2019-04-27T18:12:38.109Z,11.10
2019-04-27T18:15:10.437Z,11.10
2019-04-27T18:17:47.816Z,11.00
2019-04-27T18:20:13.589Z,10.90
2019-04-27T18:22:49.024Z,10.90
2019-04-27T18:25:18.845Z,10.90
2019-04-27T18:27:56.107Z,10.90
2019-04-27T18:30:28.187Z,10.70
2019-04-27T18:32:59.209Z,10.60
2019-04-27T18:35:29.690Z,10.20
2019-04-27T18:38:01.791Z,9.90
2019-04-27T18:40:32.458Z,9.50
2019-04-27T18:43:05.938Z,9.30
2019-04-27T18:45:33.327Z,9.20
2019-04-27T18:48:06.564Z,9.20
2019-04-27T18:50:43.630Z,9.20
2019-04-27T18:53:16.455Z,9.30
2019-04-27T18:55:45.471Z,9.20
2019-04-27T18:58:15.081Z,9.20
2019-04-27T19:00:45.816Z,9.20
2019-04-27T19:03:15.392Z,9.20
2019-04-27T19:05:45.132Z,9.10
2019-04-27T19:08:17.804Z,9.00
2019-04-27T19:10:47.112Z,9.10
2019-04-27T19:13:16.720Z,9.00
2019-04-27T19:15:46.431Z,9.00
2019-04-27T19:18:16.111Z,9.00
2019-04-27T19:20:45.749Z,8.90
2019-04-27T19:23:15.352Z,8.90
2019-04-27T19:25:48.176Z,8.90
2019-04-27T19:28:22.428Z,9.00
2019-04-27T19:30:57.649Z,9.00
2019-04-27T19:33:30.379Z,8.90
2019-04-27T19:36:00.852Z,8.90
2019-04-27T19:38:30.512Z,8.80
2019-04-27T19:41:00.092Z,8.60
2019-04-27T19:43:29.903Z,8.30
2019-04-27T19:46:00.513Z,8.30
2019-04-27T19:48:30.274Z,8.40
2019-04-27T19:51:00.271Z,8.40
2019-04-27T19:53:30.075Z,8.40
2019-04-27T19:56:02.447Z,8.40
2019-04-27T19:58:33.930Z,8.50
2019-04-27T20:01:14.227Z,8.50
2019-04-27T20:03:50.142Z,8.60
2019-04-27T20:06:19.749Z,8.50
2019-04-27T20:08:50.996Z,8.40
2019-04-27T20:11:20.603Z,8.30
2019-04-27T20:13:50.636Z,8.30
2019-04-27T20:16:21.560Z,8.40
2019-04-27T20:18:51.634Z,8.20
2019-04-27T20:21:21.435Z,8.00
2019-04-27T20:23:51.203Z,7.90
2019-04-27T20:26:20.855Z,7.80
2019-04-27T20:28:52.353Z,7.70
2019-04-27T20:31:21.971Z,7.80
2019-04-27T20:33:53.906Z,7.90
2019-04-27T20:36:23.952Z,7.90
2019-04-27T20:38:53.630Z,7.90
2019-04-27T20:41:23.370Z,7.90
2019-04-27T20:43:54.052Z,7.90
2019-04-27T20:46:23.819Z,7.90
2019-04-27T20:48:53.391Z,7.90
2019-04-27T20:51:24.640Z,7.80
2019-04-27T20:53:55.918Z,7.70
2019-04-27T20:56:25.594Z,7.60
2019-04-27T20:58:55.233Z,7.50
2019-04-27T21:01:24.912Z,7.40
2019-04-27T21:03:56.188Z,7.30
2019-04-27T21:06:33.884Z,7.30
2019-04-27T21:09:05.030Z,7.40
2019-04-27T21:11:46.515Z,7.20
2019-04-27T21:14:16.123Z,7.20
2019-04-27T21:16:46.813Z,7.20
2019-04-27T21:19:16.435Z,7.20
2019-04-27T21:21:46.148Z,7.10
2019-04-27T21:24:15.784Z,7.10
2019-04-27T21:26:45.383Z,7.10
2019-04-27T21:29:15.072Z,7.00
2019-04-27T21:31:44.813Z,7.10
2019-04-27T21:34:14.521Z,7.10
2019-04-27T21:36:44.230Z,7.20
2019-04-27T21:39:13.838Z,7.20
2019-04-27T21:41:43.755Z,7.30
2019-04-27T21:44:13.331Z,7.40
2019-04-27T21:46:43.070Z,7.40
2019-04-27T21:49:12.901Z,7.50
2019-04-27T21:52:01.380Z,7.40
2019-04-27T21:54:35.012Z,7.40
2019-04-27T21:57:04.746Z,7.40
2019-04-27T21:59:35.451Z,7.40
2019-04-27T22:02:06.627Z,7.40
2019-04-27T22:04:36.333Z,7.50
2019-04-27T22:07:05.942Z,7.40
2019-04-27T22:09:35.626Z,7.50
2019-04-27T22:12:05.569Z,7.60
2019-04-27T22:14:35.277Z,7.60
2019-04-27T22:17:04.884Z,7.60
2019-04-27T22:19:35.616Z,7.60
2019-04-27T22:22:06.864Z,7.50
2019-04-27T22:24:38.117Z,7.50
2019-04-27T22:27:07.720Z,7.40
2019-04-27T22:29:37.430Z,7.40
2019-04-27T22:32:08.864Z,7.40
2019-04-27T22:34:38.488Z,7.30
2019-04-27T22:37:08.198Z,7.40
2019-04-27T22:39:42.493Z,7.50
2019-04-27T22:42:13.762Z,7.60
2019-04-27T22:44:44.978Z,7.60
2019-04-27T22:47:14.687Z,7.60
2019-04-27T22:49:44.326Z,7.60
2019-04-27T22:52:14.997Z,7.50
2019-04-27T22:54:44.666Z,7.40
2019-04-27T22:57:15.883Z,7.50
2019-04-27T23:00:03.737Z,7.40
2019-04-27T23:02:36.531Z,7.40
2019-04-27T23:05:07.208Z,7.40
2019-04-27T23:07:36.948Z,7.30
2019-04-27T23:10:07.372Z,7.20
2019-04-27T23:12:37.082Z,7.20
2019-04-27T23:15:08.464Z,7.10
2019-04-27T23:17:54.832Z,7.00
2019-04-27T23:20:24.469Z,6.90
2019-04-27T23:22:54.178Z,6.90
2019-04-27T23:25:23.858Z,6.90
2019-04-27T23:27:53.470Z,6.90
2019-04-27T23:30:26.623Z,6.90
2019-04-27T23:32:57.043Z,6.80
2019-04-27T23:35:28.413Z,6.90
2019-04-27T23:37:58.073Z,6.90
2019-04-27T23:40:27.782Z,6.90
2019-04-27T23:42:57.390Z,7.10
2019-04-27T23:45:27.071Z,7.40
2019-04-27T23:47:56.690Z,7.70
2019-04-27T23:50:27.925Z,7.60
2019-04-27T23:53:01.885Z,7.30
2019-04-27T23:58:23.298Z,6.80
